createdAt,value
2023-02-24T00:00:47.392Z,98688.69
2023-02-24T00:02:01.760Z,98686.66
2023-02-24T00:03:11.664Z,98689.00
2023-02-24T00:04:21.165Z,98686.38
2023-02-24T00:05:26.117Z,98679.69
2023-02-24T00:06:37.286Z,98680.41
2023-02-24T00:07:41.846Z,98678.63
2023-02-24T00:08:47.851Z,98675.97
2023-02-24T00:10:01.371Z,98674.00
2023-02-24T00:11:14.992Z,98681.91
2023-02-24T00:12:21.296Z,98674.84
2023-02-24T00:13:26.381Z,98671.22
2023-02-24T00:14:36.575Z,98673.88
2023-02-24T00:15:40.841Z,98669.53
2023-02-24T00:16:46.915Z,98671.22
2023-02-24T00:17:51.420Z,98665.09
2023-02-24T00:18:55.747Z,98667.75
2023-02-24T00:20:00.053Z,98659.81
2023-02-24T00:21:17.211Z,98664.47
2023-02-24T00:22:21.824Z,98667.31
2023-02-24T00:23:26.195Z,98665.50
2023-02-24T00:24:31.519Z,98662.13
2023-02-24T00:25:36.336Z,98664.78
2023-02-24T00:26:41.752Z,98667.66
2023-02-24T00:27:46.139Z,98666.69
2023-02-24T00:28:50.388Z,98665.72
2023-02-24T00:29:56.117Z,98664.91
2023-02-24T00:31:20.678Z,98661.19
2023-02-24T00:32:25.444Z,98661.19
2023-02-24T00:33:31.231Z,98662.88
2023-02-24T00:34:37.814Z,98656.84
2023-02-24T00:35:42.244Z,98658.53
2023-02-24T00:36:46.134Z,98656.75
2023-02-24T00:37:51.655Z,98653.13
2023-02-24T00:39:11.281Z,98653.25
2023-02-24T00:40:23.769Z,98656.75
2023-02-24T00:41:32.926Z,98654.94
2023-02-24T00:42:40.353Z,98646.28
2023-02-24T00:43:49.989Z,98639.50
2023-02-24T00:44:54.702Z,98644.78
2023-02-24T00:46:02.862Z,98638.56
2023-02-24T00:47:10.785Z,98639.41
2023-02-24T00:48:15.932Z,98640.25
2023-02-24T00:49:21.423Z,98635.94
2023-02-24T00:50:25.671Z,98635.03
2023-02-24T00:51:29.505Z,98638.66
2023-02-24T00:52:33.570Z,98629.88
2023-02-24T00:53:40.480Z,98623.75
2023-02-24T00:54:51.613Z,98631.56
2023-02-24T00:56:02.566Z,98629.75
2023-02-24T00:57:08.503Z,98635.03
2023-02-24T00:58:14.052Z,98626.38
2023-02-24T00:59:19.044Z,98622.78
2023-02-24T01:00:23.836Z,98623.63
2023-02-24T01:01:33.174Z,98618.34
2023-02-24T01:02:38.638Z,98623.63
2023-02-24T01:03:42.973Z,98622.72
2023-02-24T01:04:47.321Z,98616.53
2023-02-24T01:05:51.682Z,98616.47
2023-02-24T01:07:00.565Z,98612.13
2023-02-24T01:08:05.303Z,98609.25
2023-02-24T01:09:20.375Z,98609.16
2023-02-24T01:10:27.188Z,98610.00
2023-02-24T01:11:54.696Z,98615.16
2023-02-24T01:12:58.848Z,98604.59
2023-02-24T01:14:13.906Z,98607.16
2023-02-24T01:15:21.389Z,98610.66
2023-02-24T01:16:25.888Z,98608.97
2023-02-24T01:17:30.128Z,98611.69
2023-02-24T01:18:34.729Z,98606.31
2023-02-24T01:19:38.829Z,98601.88
2023-02-24T01:20:42.931Z,98605.47
2023-02-24T01:21:47.652Z,98603.66
2023-02-24T01:22:56.925Z,98601.03
2023-02-24T01:24:01.235Z,98608.13
2023-02-24T01:25:08.168Z,98608.13
2023-02-24T01:26:11.888Z,98601.88
2023-02-24T01:27:19.603Z,98593.41
2023-02-24T01:28:23.668Z,98595.81
2023-02-24T01:29:27.680Z,98599.31
2023-02-24T01:30:31.541Z,98592.34
2023-02-24T01:31:36.532Z,98588.72
2023-02-24T01:32:40.994Z,98587.03
2023-02-24T01:33:46.243Z,98589.59
2023-02-24T01:34:54.022Z,98588.72
2023-02-24T01:35:58.560Z,98588.66
2023-02-24T01:37:02.704Z,98585.88
2023-02-24T01:38:06.607Z,98588.53
2023-02-24T01:39:14.553Z,98590.22
2023-02-24T01:40:21.727Z,98582.53
2023-02-24T01:41:31.344Z,98583.25
2023-02-24T01:42:35.813Z,98587.81
2023-02-24T01:44:29.740Z,98580.06
2023-02-24T01:45:36.944Z,98581.13
2023-02-24T01:46:44.555Z,98576.69
2023-02-24T01:47:51.678Z,98580.19
2023-02-24T01:49:03.482Z,98574.06
2023-02-24T01:50:15.242Z,98577.53
2023-02-24T01:51:19.902Z,98580.91
2023-02-24T01:52:34.859Z,98569.50
2023-02-24T01:53:39.472Z,98574.78
2023-02-24T01:54:54.850Z,98569.59
2023-02-24T01:55:59.567Z,98569.50
2023-02-24T01:57:06.065Z,98565.28
2023-02-24T01:58:28.820Z,98569.38
2023-02-24T01:59:38.135Z,98566.84
2023-02-24T02:00:48.462Z,98573.94
2023-02-24T02:02:04.464Z,98566.00
2023-02-24T02:03:31.508Z,98566.13
2023-02-24T02:04:57.470Z,98563.47
2023-02-24T02:06:09.220Z,98563.78
2023-02-24T02:07:20.064Z,98558.38
2023-02-24T02:08:25.213Z,98558.31
2023-02-24T02:09:29.891Z,98557.47
2023-02-24T02:10:35.100Z,98549.63
2023-02-24T02:11:38.990Z,98557.22
2023-02-24T02:12:45.185Z,98553.63
2023-02-24T02:13:52.884Z,98550.03
2023-02-24T02:14:59.864Z,98558.81
2023-02-24T02:16:38.550Z,98548.16
2023-02-24T02:17:58.014Z,98549.84
2023-02-24T02:19:16.673Z,98549.72
2023-02-24T02:20:50.162Z,98544.44
2023-02-24T02:22:02.931Z,98543.34
2023-02-24T02:23:58.171Z,98552.13
2023-02-24T02:25:34.235Z,98548.56
2023-02-24T02:26:50.458Z,98544.13
2023-02-24T02:28:15.719Z,98544.88
2023-02-24T02:29:58.472Z,98550.06
2023-02-24T02:31:21.217Z,98540.31
2023-02-24T02:33:02.302Z,98544.56
2023-02-24T02:35:06.956Z,98535.66
2023-02-24T02:36:43.855Z,98532.91
2023-02-24T02:38:12.229Z,98536.28
2023-02-24T02:39:59.346Z,98536.09
2023-02-24T02:41:26.555Z,98530.69
2023-02-24T02:43:27.637Z,98527.91
2023-02-24T02:44:45.350Z,98529.72
2023-02-24T02:46:05.212Z,98528.63
2023-02-24T02:47:35.323Z,98526.97
2023-02-24T02:48:58.291Z,98524.44
2023-02-24T02:50:28.002Z,98526.13
2023-02-24T02:51:41.722Z,98519.97
2023-02-24T02:53:06.301Z,98526.13
2023-02-24T02:54:25.157Z,98526.13
2023-02-24T02:55:54.073Z,98519.84
2023-02-24T02:57:21.042Z,98517.34
2023-02-24T02:58:34.299Z,98512.28
2023-02-24T02:59:57.327Z,98514.69
2023-02-24T03:01:07.604Z,98510.25
2023-02-24T03:02:15.639Z,98511.09
2023-02-24T03:03:20.057Z,98516.25
2023-02-24T03:04:26.867Z,98509.91
2023-02-24T03:05:47.552Z,98510.75
2023-02-24T03:07:02.145Z,98509.06
2023-02-24T03:08:12.247Z,98504.50
2023-02-24T03:09:32.660Z,98504.50
2023-02-24T03:10:37.558Z,98513.41
2023-02-24T03:12:00.002Z,98509.56
2023-02-24T03:13:11.214Z,98508.72
2023-02-24T03:14:21.895Z,98513.19
2023-02-24T03:15:30.488Z,98507.03
2023-02-24T03:16:36.018Z,98502.47
2023-02-24T03:17:45.809Z,98508.59
2023-02-24T03:19:06.390Z,98507.69
2023-02-24T03:20:23.172Z,98505.03
2023-02-24T03:21:45.849Z,98504.19
2023-02-24T03:23:03.734Z,98511.25
2023-02-24T03:24:09.681Z,98502.38
2023-02-24T03:25:14.432Z,98507.69
2023-02-24T03:26:46.751Z,98502.38
2023-02-24T03:27:58.373Z,98503.44
2023-02-24T03:29:24.420Z,98503.44
2023-02-24T03:30:44.908Z,98499.34
2023-02-24T03:32:10.682Z,98500.31
2023-02-24T03:33:36.682Z,98498.50
2023-02-24T03:35:26.721Z,98490.44
2023-02-24T03:36:31.446Z,98490.66
2023-02-24T03:37:37.264Z,98492.25
2023-02-24T03:38:44.131Z,98493.94
2023-02-24T03:39:53.554Z,98492.97
2023-02-24T03:40:59.335Z,98482.28
2023-02-24T03:42:25.445Z,98481.31
2023-02-24T03:43:36.942Z,98486.50
2023-02-24T03:44:41.939Z,98489.16
2023-02-24T03:45:47.318Z,98481.09
2023-02-24T03:46:55.444Z,98482.06
2023-02-24T03:48:04.039Z,98481.94
2023-02-24T03:49:16.599Z,98482.78
2023-02-24T03:50:22.462Z,98477.50
2023-02-24T03:51:27.952Z,98474.22
2023-02-24T03:52:32.778Z,98481.22
2023-02-24T03:54:11.401Z,98472.53
2023-02-24T03:56:01.776Z,98474.22
2023-02-24T03:58:01.386Z,98470.00
2023-02-24T03:59:53.223Z,98472.97
2023-02-24T04:01:09.943Z,98465.03
2023-02-24T04:02:27.015Z,98461.22
2023-02-24T04:03:58.308Z,98459.22
2023-02-24T04:05:22.839Z,98459.22
2023-02-24T04:06:56.098Z,98456.00
2023-02-24T04:08:08.197Z,98458.75
2023-02-24T04:09:27.646Z,98456.00
2023-02-24T04:10:53.088Z,98448.78
2023-02-24T04:12:17.681Z,98446.41
2023-02-24T04:13:47.475Z,98444.28
2023-02-24T04:15:20.023Z,98451.03
2023-02-24T04:16:36.662Z,98441.28
2023-02-24T04:17:46.793Z,98438.53
2023-02-24T04:18:53.305Z,98446.84
2023-02-24T04:20:10.609Z,98441.34
2023-02-24T04:21:19.618Z,98442.78
2023-02-24T04:22:27.441Z,98443.84
2023-02-24T04:23:39.605Z,98432.31
2023-02-24T04:24:50.678Z,98434.94
2023-02-24T04:25:58.316Z,98434.50
2023-02-24T04:27:08.302Z,98434.28
2023-02-24T04:28:15.363Z,98431.38
2023-02-24T04:29:24.885Z,98431.16
2023-02-24T04:30:36.129Z,98430.31
2023-02-24T04:31:40.844Z,98433.56
2023-02-24T04:32:45.183Z,98433.22
2023-02-24T04:33:53.518Z,98433.13
2023-02-24T04:35:13.155Z,98427.56
2023-02-24T04:36:19.122Z,98428.28
2023-02-24T04:37:23.335Z,98431.69
2023-02-24T04:38:27.726Z,98427.31
2023-02-24T04:39:32.601Z,98426.38
2023-02-24T04:40:37.014Z,98426.38
2023-02-24T04:41:40.928Z,98422.66
2023-02-24T04:42:49.254Z,98429.50
2023-02-24T04:43:53.315Z,98421.47
2023-02-24T04:44:58.805Z,98417.00
2023-02-24T04:46:07.992Z,98416.25
2023-02-24T04:47:12.942Z,98415.19
2023-02-24T04:48:17.051Z,98412.56
2023-02-24T04:49:22.437Z,98414.22
2023-02-24T04:50:28.741Z,98415.06
2023-02-24T04:51:34.132Z,98416.75
2023-02-24T04:52:38.987Z,98407.84
2023-02-24T04:53:43.243Z,98403.50
2023-02-24T04:54:48.425Z,98403.38
2023-02-24T04:55:53.752Z,98404.22
2023-02-24T04:56:59.228Z,98404.22
2023-02-24T04:58:04.333Z,98403.25
2023-02-24T04:59:10.774Z,98398.81
2023-02-24T05:00:22.993Z,98396.16
2023-02-24T05:01:27.274Z,98398.72
2023-02-24T05:02:31.955Z,98397.13
2023-02-24T05:03:36.951Z,98397.97
2023-02-24T05:04:42.443Z,98399.69
2023-02-24T05:05:57.062Z,98392.66
2023-02-24T05:07:01.360Z,98392.66
2023-02-24T05:08:11.083Z,98395.31
2023-02-24T05:09:18.416Z,98393.41
2023-02-24T05:10:28.223Z,98392.44
2023-02-24T05:11:35.437Z,98396.91
2023-02-24T05:12:40.247Z,98392.56
2023-02-24T05:13:47.967Z,98394.38
2023-02-24T05:14:55.148Z,98395.31
2023-02-24T05:16:08.366Z,98396.16
2023-02-24T05:17:14.489Z,98392.66
2023-02-24T05:18:18.767Z,98387.38
2023-02-24T05:19:41.343Z,98384.72
2023-02-24T05:21:07.997Z,98384.72
2023-02-24T05:22:14.666Z,98384.72
2023-02-24T05:23:18.832Z,98383.88
2023-02-24T05:24:23.064Z,98383.88
2023-02-24T05:25:27.398Z,98385.56
2023-02-24T05:26:32.300Z,98382.91
2023-02-24T05:27:39.339Z,98383.88
2023-02-24T05:28:52.713Z,98382.19
2023-02-24T05:29:57.612Z,98377.16
2023-02-24T05:31:34.771Z,98381.59
2023-02-24T05:32:39.473Z,98378.00
2023-02-24T05:33:46.630Z,98383.28
2023-02-24T05:34:50.606Z,98378.13
2023-02-24T05:35:56.760Z,98381.59
2023-02-24T05:37:10.989Z,98379.31
2023-02-24T05:38:19.908Z,98375.09
2023-02-24T05:39:26.849Z,98373.16
2023-02-24T05:40:31.336Z,98374.13
2023-02-24T05:41:42.026Z,98370.78
2023-02-24T05:42:47.382Z,98366.53
2023-02-24T05:43:56.649Z,98365.69
2023-02-24T05:45:02.394Z,98368.47
2023-02-24T05:46:07.374Z,98371.00
2023-02-24T05:47:11.953Z,98378.81
2023-02-24T05:48:16.881Z,98371.00
2023-02-24T05:49:27.302Z,98367.63
2023-02-24T05:50:32.466Z,98362.69
2023-02-24T05:51:39.613Z,98362.94
2023-02-24T05:52:46.149Z,98361.13
2023-02-24T05:53:55.758Z,98358.47
2023-02-24T05:55:03.028Z,98363.66
2023-02-24T05:56:09.469Z,98357.38
2023-02-24T05:57:21.196Z,98357.50
2023-02-24T05:58:29.312Z,98361.13
2023-02-24T05:59:35.201Z,98369.91
2023-02-24T06:00:40.625Z,98370.75
2023-02-24T06:01:48.860Z,98362.94
2023-02-24T06:02:53.255Z,98353.91
2023-02-24T06:04:07.551Z,98356.28
2023-02-24T06:05:25.605Z,98358.69
2023-02-24T06:06:31.467Z,98353.31
2023-02-24T06:07:36.254Z,98359.44
2023-02-24T06:08:50.100Z,98355.81
2023-02-24T06:10:00.373Z,98354.00
2023-02-24T06:11:04.915Z,98353.88
2023-02-24T06:12:16.806Z,98351.97
2023-02-24T06:13:23.211Z,98349.31
2023-02-24T06:14:29.044Z,98339.69
2023-02-24T06:15:37.768Z,98346.66
2023-02-24T06:16:51.728Z,98335.34
2023-02-24T06:18:20.326Z,98344.75
2023-02-24T06:19:27.505Z,98344.88
2023-02-24T06:20:37.815Z,98335.97
2023-02-24T06:21:46.983Z,98336.69
2023-02-24T06:22:57.780Z,98336.81
2023-02-24T06:24:02.764Z,98332.94
2023-02-24T06:25:11.807Z,98328.50
2023-02-24T06:26:19.728Z,98334.88
2023-02-24T06:27:25.583Z,98336.34
2023-02-24T06:28:34.109Z,98331.88
2023-02-24T06:29:39.280Z,98325.75
2023-02-24T06:30:43.889Z,98337.19
2023-02-24T06:31:50.135Z,98338.88
2023-02-24T06:32:57.654Z,98323.09
2023-02-24T06:34:03.914Z,98339.00
2023-02-24T06:35:09.761Z,98334.53
2023-02-24T06:36:15.542Z,98326.47
2023-02-24T06:37:21.196Z,98336.09
2023-02-24T06:38:26.327Z,98325.50
2023-02-24T06:39:36.186Z,98325.25
2023-02-24T06:40:42.898Z,98310.31
2023-02-24T06:41:53.077Z,98330.31
2023-02-24T06:42:57.285Z,98321.66
2023-02-24T06:44:01.875Z,98322.50
2023-02-24T06:45:08.756Z,98313.81
2023-02-24T06:46:16.520Z,98314.56
2023-02-24T06:47:23.092Z,98313.72
2023-02-24T06:48:29.241Z,98317.28
2023-02-24T06:49:37.984Z,98313.47
2023-02-24T06:50:46.772Z,98315.84
2023-02-24T06:52:03.695Z,98306.22
2023-02-24T06:53:17.117Z,98312.50
2023-02-24T06:54:30.994Z,98311.53
2023-02-24T06:55:37.022Z,98304.81
2023-02-24T06:56:44.426Z,98318.25
2023-02-24T06:58:04.507Z,98314.91
2023-02-24T06:59:16.341Z,98308.75
2023-02-24T07:00:36.880Z,98308.50
2023-02-24T07:01:47.196Z,98305.28
2023-02-24T07:02:54.604Z,98309.59
2023-02-24T07:04:08.262Z,98303.72
2023-02-24T07:05:15.301Z,98306.25
2023-02-24T07:06:26.829Z,98300.69
2023-02-24T07:07:32.206Z,98302.16
2023-02-24T07:08:41.413Z,98299.38
2023-02-24T07:09:46.154Z,98304.66
2023-02-24T07:11:01.515Z,98299.63
2023-02-24T07:12:11.784Z,98295.88
2023-02-24T07:13:17.212Z,98299.38
2023-02-24T07:14:27.150Z,98299.97
2023-02-24T07:15:32.370Z,98296.38
2023-02-24T07:16:39.627Z,98298.91
2023-02-24T07:17:48.280Z,98296.69
2023-02-24T07:19:00.153Z,98294.91
2023-02-24T07:20:12.473Z,98299.00
2023-02-24T07:21:18.432Z,98300.66
2023-02-24T07:22:26.092Z,98300.66
2023-02-24T07:23:30.664Z,98295.38
2023-02-24T07:24:40.961Z,98293.47
2023-02-24T07:25:46.850Z,98288.41
2023-02-24T07:27:01.383Z,98295.16
2023-02-24T07:28:07.607Z,98289.00
2023-02-24T07:29:13.575Z,98291.28
2023-02-24T07:30:18.825Z,98285.97
2023-02-24T07:31:26.099Z,98280.66
2023-02-24T07:32:33.682Z,98284.06
2023-02-24T07:33:46.796Z,98279.59
2023-02-24T07:34:52.139Z,98276.81
2023-02-24T07:35:58.147Z,98276.56
2023-02-24T07:37:08.510Z,98280.06
2023-02-24T07:38:17.855Z,98274.66
2023-02-24T07:39:24.355Z,98276.34
2023-02-24T07:40:30.109Z,98272.72
2023-02-24T07:41:38.023Z,98274.13
2023-02-24T07:42:42.579Z,98270.78
2023-02-24T07:43:46.770Z,98274.88
2023-02-24T07:44:52.533Z,98265.34
2023-02-24T07:45:58.285Z,98265.94
2023-02-24T07:47:08.076Z,98265.81
2023-02-24T07:48:15.986Z,98267.63
2023-02-24T07:49:26.407Z,98270.00
2023-02-24T07:50:33.060Z,98268.09
2023-02-24T07:51:37.532Z,98269.78
2023-02-24T07:52:51.294Z,98269.78
2023-02-24T07:54:01.780Z,98263.38
2023-02-24T07:55:11.563Z,98258.69
2023-02-24T07:56:20.885Z,98260.34
2023-02-24T07:57:26.182Z,98255.91
2023-02-24T07:58:34.636Z,98254.94
2023-02-24T07:59:40.408Z,98262.75
2023-02-24T08:01:00.014Z,98258.16
2023-02-24T08:02:07.940Z,98257.06
2023-02-24T08:03:13.806Z,98252.75
2023-02-24T08:04:30.869Z,98252.59
2023-02-24T08:05:36.698Z,98249.97
2023-02-24T08:06:48.085Z,98253.31
2023-02-24T08:07:53.155Z,98251.50
2023-02-24T08:09:01.330Z,98250.44
2023-02-24T08:10:12.371Z,98253.91
2023-02-24T08:11:16.425Z,98252.59
2023-02-24T08:12:23.403Z,98245.22
2023-02-24T08:13:37.777Z,98250.09
2023-02-24T08:14:45.009Z,98255.97
2023-02-24T08:15:56.848Z,98251.78
2023-02-24T08:17:05.642Z,98248.00
2023-02-24T08:18:10.231Z,98250.66
2023-02-24T08:19:21.259Z,98248.47
2023-02-24T08:20:30.377Z,98244.59
2023-02-24T08:21:41.612Z,98247.03
2023-02-24T08:22:47.644Z,98237.84
2023-02-24T08:23:53.308Z,98239.59
2023-02-24T08:25:06.582Z,98239.09
2023-02-24T08:26:13.181Z,98235.66
2023-02-24T08:27:31.079Z,98236.81
2023-02-24T08:28:36.543Z,98232.09
2023-02-24T08:29:58.239Z,98241.19
2023-02-24T08:31:05.203Z,98230.34
2023-02-24T08:32:11.066Z,98238.03
2023-02-24T08:33:23.386Z,98223.69
2023-02-24T08:34:32.143Z,98228.38
2023-02-24T08:35:45.322Z,98230.66
2023-02-24T08:36:56.138Z,98222.94
2023-02-24T08:38:14.905Z,98226.72
2023-02-24T08:39:19.650Z,98229.00
2023-02-24T08:40:33.156Z,98225.34
2023-02-24T08:41:55.168Z,98226.44
2023-02-24T08:43:18.230Z,98222.94
2023-02-24T08:44:23.484Z,98222.94
2023-02-24T08:45:38.963Z,98219.91
2023-02-24T08:46:49.631Z,98218.78
2023-02-24T08:48:00.950Z,98227.88
2023-02-24T08:49:11.364Z,98211.94
2023-02-24T08:50:16.563Z,98215.56
2023-02-24T08:51:44.146Z,98210.81
2023-02-24T08:52:49.412Z,98211.28
2023-02-24T08:54:00.194Z,98219.09
2023-02-24T08:55:10.844Z,98213.66
2023-02-24T08:56:24.611Z,98215.38
2023-02-24T08:57:29.257Z,98210.16
2023-02-24T08:58:33.654Z,98206.81
2023-02-24T08:59:38.957Z,98208.47
2023-02-24T09:01:00.254Z,98213.25
2023-02-24T09:02:23.749Z,98206.41
2023-02-24T09:03:30.250Z,98204.31
2023-02-24T09:04:35.396Z,98206.84
2023-02-24T09:05:40.465Z,98204.06
2023-02-24T09:07:10.675Z,98203.66
2023-02-24T09:08:16.048Z,98205.09
2023-02-24T09:09:22.770Z,98201.59
2023-02-24T09:10:28.879Z,98197.13
2023-02-24T09:11:32.903Z,98207.44
2023-02-24T09:12:41.692Z,98200.16
2023-02-24T09:13:53.700Z,98202.28
2023-02-24T09:15:05.068Z,98189.59
2023-02-24T09:16:17.053Z,98198.97
2023-02-24T09:17:54.135Z,98196.22
2023-02-24T09:19:37.409Z,98196.78
2023-02-24T09:21:16.677Z,98192.19
2023-02-24T09:22:32.139Z,98192.13
2023-02-24T09:23:46.742Z,98186.81
2023-02-24T09:25:18.413Z,98188.25
2023-02-24T09:26:24.420Z,98190.38
2023-02-24T09:27:29.940Z,98193.47
2023-02-24T09:28:48.952Z,98191.59
2023-02-24T09:30:08.351Z,98181.97
2023-02-24T09:31:17.445Z,98176.50
2023-02-24T09:32:22.905Z,98184.47
2023-02-24T09:33:42.407Z,98180.28
2023-02-24T09:34:48.230Z,98182.09
2023-02-24T09:36:25.484Z,98183.91
2023-02-24T09:37:32.499Z,98175.94
2023-02-24T09:38:58.786Z,98182.66
2023-02-24T09:40:33.632Z,98169.50
2023-02-24T09:41:54.954Z,98171.88
2023-02-24T09:42:59.826Z,98171.19
2023-02-24T09:44:18.751Z,98170.88
2023-02-24T09:45:33.747Z,98174.13
2023-02-24T09:46:56.496Z,98167.84
2023-02-24T09:48:24.387Z,98162.81
2023-02-24T09:50:04.506Z,98160.84
2023-02-24T09:51:34.074Z,98169.41
2023-02-24T09:53:00.115Z,98152.72
2023-02-24T09:54:18.152Z,98161.28
2023-02-24T09:56:04.106Z,98154.28
2023-02-24T09:57:25.738Z,98156.69
2023-02-24T09:59:13.720Z,98157.66
2023-02-24T10:00:28.501Z,98157.78
2023-02-24T10:02:44.621Z,98152.75
2023-02-24T10:04:23.248Z,98152.19
2023-02-24T10:05:49.550Z,98155.81
2023-02-24T10:07:04.618Z,98155.69
2023-02-24T10:08:26.046Z,98153.59
2023-02-24T10:10:20.270Z,98152.63
2023-02-24T10:11:35.178Z,98151.59
2023-02-24T10:13:30.666Z,98148.53
2023-02-24T10:15:19.317Z,98137.06
2023-02-24T10:16:44.140Z,98152.34
2023-02-24T10:18:00.432Z,98147.44
2023-02-24T10:19:36.433Z,98150.25
2023-02-24T10:20:54.310Z,98148.53
2023-02-24T10:22:52.799Z,98144.91
2023-02-24T10:24:07.927Z,98153.59
2023-02-24T10:25:40.029Z,98138.34
2023-02-24T10:27:01.261Z,98144.09
2023-02-24T10:28:45.771Z,98143.81
2023-02-24T10:30:26.601Z,98130.94
2023-02-24T10:31:58.201Z,98137.66
2023-02-24T10:33:36.698Z,98130.63
2023-02-24T10:34:47.200Z,98132.34
2023-02-24T10:36:09.844Z,98132.06
2023-02-24T10:37:29.094Z,98126.88
2023-02-24T10:38:41.562Z,98121.56
2023-02-24T10:39:52.003Z,98115.13
2023-02-24T10:41:07.062Z,98111.38
2023-02-24T10:42:26.169Z,98112.75
2023-02-24T10:43:32.789Z,98100.88
2023-02-24T10:44:39.468Z,98100.03
2023-02-24T10:45:47.987Z,98100.47
2023-02-24T10:47:14.374Z,98102.13
2023-02-24T10:48:40.738Z,98093.31
2023-02-24T10:49:58.332Z,98094.44
2023-02-24T10:51:37.613Z,98091.22
2023-02-24T10:53:11.956Z,98091.78
2023-02-24T10:54:34.216Z,98081.97
2023-02-24T10:55:48.531Z,98077.50
2023-02-24T10:57:08.278Z,98079.19
2023-02-24T10:58:29.591Z,98072.06
2023-02-24T11:00:17.006Z,98072.63
2023-02-24T11:01:41.315Z,98066.16
2023-02-24T11:03:11.102Z,98063.38
2023-02-24T11:04:28.675Z,98057.31
2023-02-24T11:05:56.776Z,98055.50
2023-02-24T11:07:24.998Z,98057.28
2023-02-24T11:09:05.429Z,98055.09
2023-02-24T11:10:34.698Z,98053.69
2023-02-24T11:12:03.703Z,98048.22
2023-02-24T11:15:38.716Z,98036.34
2023-02-24T11:17:15.053Z,98034.13
2023-02-24T11:18:32.872Z,98035.06
2023-02-24T11:20:06.979Z,98029.84
2023-02-24T11:21:21.452Z,98021.75
2023-02-24T11:22:42.578Z,98023.44
2023-02-24T11:23:59.963Z,98024.38
2023-02-24T11:25:15.078Z,98017.47
2023-02-24T11:26:32.627Z,98021.38
2023-02-24T11:27:36.729Z,98019.81
2023-02-24T11:28:57.043Z,98015.84
2023-02-24T11:30:26.944Z,98015.75
2023-02-24T11:31:56.914Z,98008.50
2023-02-24T11:33:30.329Z,98001.78
2023-02-24T11:35:20.062Z,98000.78
2023-02-24T11:36:58.922Z,97991.81
2023-02-24T11:38:28.344Z,97992.91
2023-02-24T11:39:46.463Z,97993.28
2023-02-24T11:41:27.976Z,97987.06
2023-02-24T11:42:40.253Z,97988.31
2023-02-24T11:44:01.054Z,97983.91
2023-02-24T11:45:34.962Z,97987.97
2023-02-24T11:46:58.256Z,97974.41
2023-02-24T11:48:20.962Z,97973.41
2023-02-24T11:49:45.717Z,97964.97
2023-02-24T11:51:05.318Z,97969.53
2023-02-24T11:52:33.477Z,97959.56
2023-02-24T11:54:11.143Z,97949.50
2023-02-24T11:55:43.354Z,97944.75
2023-02-24T11:57:04.825Z,97947.78
2023-02-24T11:58:36.381Z,97941.59
2023-02-24T11:59:55.061Z,97944.34
2023-02-24T12:01:16.243Z,97948.56
2023-02-24T12:02:39.136Z,97937.91
2023-02-24T12:04:34.228Z,97933.25
2023-02-24T12:05:50.173Z,97938.91
2023-02-24T12:07:39.153Z,97937.06
2023-02-24T12:08:53.824Z,97941.97
2023-02-24T12:10:17.732Z,97938.81
2023-02-24T12:11:39.585Z,97936.25
2023-02-24T12:13:10.920Z,97940.16
2023-02-24T12:14:43.655Z,97939.31
2023-02-24T12:15:56.760Z,97953.91
2023-02-24T12:17:31.516Z,97941.16
2023-02-24T12:19:12.904Z,97931.16
2023-02-24T12:20:31.456Z,97933.69
2023-02-24T12:21:46.316Z,97935.31
2023-02-24T12:23:02.045Z,97931.59
2023-02-24T12:24:12.927Z,97930.94
2023-02-24T12:25:45.170Z,97931.50
2023-02-24T12:27:39.656Z,97924.72
2023-02-24T12:29:10.330Z,97917.19
2023-02-24T12:30:58.180Z,97922.59
2023-02-24T12:32:26.886Z,97920.44
2023-02-24T12:34:01.026Z,97907.22
2023-02-24T12:35:57.011Z,97912.88
2023-02-24T12:37:38.494Z,97913.53
2023-02-24T12:39:14.418Z,97911.56
2023-02-24T12:40:39.289Z,97910.66
2023-02-24T12:42:38.386Z,97910.09
2023-02-24T12:44:41.714Z,97913.75
2023-02-24T12:46:14.789Z,97912.31
2023-02-24T12:47:40.706Z,97909.50
2023-02-24T12:49:10.549Z,97914.47
2023-02-24T12:50:55.127Z,97896.28
2023-02-24T12:54:07.574Z,97898.78
2023-02-24T12:56:02.541Z,97898.09
2023-02-24T12:57:57.202Z,97893.44
2023-02-24T12:59:11.634Z,97896.44
2023-02-24T13:00:53.197Z,97888.22
2023-02-24T13:02:18.181Z,97893.97
2023-02-24T13:03:48.542Z,97885.75
2023-02-24T13:05:22.950Z,97880.09
2023-02-24T13:06:54.313Z,97887.84
2023-02-24T13:08:32.549Z,97880.97
2023-02-24T13:10:02.103Z,97885.06
2023-02-24T13:11:37.095Z,97881.34
2023-02-24T13:13:04.159Z,97885.72
2023-02-24T13:14:24.866Z,97898.34
2023-02-24T13:15:34.007Z,97894.03
2023-02-24T13:16:38.610Z,97892.25
2023-02-24T13:17:58.870Z,97883.63
2023-02-24T13:19:39.838Z,97876.41
2023-02-24T13:20:45.505Z,97875.31
2023-02-24T13:22:26.542Z,97875.47
2023-02-24T13:23:44.170Z,97884.94
2023-02-24T13:25:38.679Z,97879.47
2023-02-24T13:26:47.573Z,97863.44
2023-02-24T13:28:27.719Z,97867.06
2023-02-24T13:29:51.687Z,97875.06
2023-02-24T13:31:10.993Z,97873.06
2023-02-24T13:32:39.658Z,97873.78
2023-02-24T13:34:00.620Z,97866.41
2023-02-24T13:35:31.057Z,97862.31
2023-02-24T13:38:42.347Z,97858.09
2023-02-24T13:39:49.023Z,97853.97
2023-02-24T13:41:08.581Z,97856.50
2023-02-24T13:42:29.861Z,97861.53
2023-02-24T13:43:34.907Z,97851.28
2023-02-24T13:44:53.549Z,97843.53
2023-02-24T13:46:19.058Z,97843.81
2023-02-24T13:48:15.426Z,97845.34
2023-02-24T13:50:15.966Z,97838.06
2023-02-24T13:51:59.658Z,97838.91
2023-02-24T13:53:32.171Z,97837.16
2023-02-24T13:55:15.230Z,97843.03
2023-02-24T13:56:57.472Z,97842.16
2023-02-24T13:58:27.024Z,97837.00
2023-02-24T14:00:13.847Z,97837.25
2023-02-24T14:01:21.379Z,97832.53
2023-02-24T14:02:31.373Z,97827.38
2023-02-24T14:03:40.539Z,97825.06
2023-02-24T14:04:55.917Z,97830.78
2023-02-24T14:06:02.306Z,97825.97
2023-02-24T14:07:21.592Z,97820.22
2023-02-24T14:09:10.747Z,97816.56
2023-02-24T14:10:28.910Z,97814.72
2023-02-24T14:11:39.018Z,97817.25
2023-02-24T14:12:52.954Z,97809.41
2023-02-24T14:14:09.809Z,97811.47
2023-02-24T14:15:22.655Z,97792.16
2023-02-24T14:16:43.947Z,97811.06
2023-02-24T14:18:04.009Z,97815.84
2023-02-24T14:19:30.252Z,97811.22
2023-02-24T14:20:44.386Z,97803.38
2023-02-24T14:22:00.080Z,97807.03
2023-02-24T14:23:35.864Z,97797.53
2023-02-24T14:24:43.845Z,97807.41
2023-02-24T14:27:00.637Z,97819.56
2023-02-24T14:28:03.508Z,97807.56
2023-02-24T14:31:42.951Z,97801.63
2023-02-24T14:33:05.891Z,97801.63
2023-02-24T14:34:23.114Z,97790.97
2023-02-24T14:36:15.062Z,97780.94
2023-02-24T14:37:46.352Z,97781.94
2023-02-24T14:39:31.419Z,97771.25
2023-02-24T14:41:32.790Z,97766.81
2023-02-24T14:45:28.736Z,97769.25
2023-02-24T14:46:52.381Z,97762.81
2023-02-24T14:48:04.110Z,97762.09
2023-02-24T14:50:33.147Z,97751.94
2023-02-24T14:54:58.525Z,97736.81
2023-02-24T14:56:34.365Z,97743.63
2023-02-24T14:58:39.796Z,97740.97
2023-02-24T15:00:01.483Z,97739.63
2023-02-24T15:02:05.517Z,97746.47
2023-02-24T15:03:54.831Z,97741.28
2023-02-24T15:05:18.007Z,97741.47
2023-02-24T15:06:50.742Z,97739.84
2023-02-24T15:08:05.841Z,97743.84
2023-02-24T15:09:26.615Z,97732.66
2023-02-24T15:10:35.650Z,97729.31
2023-02-24T15:11:51.125Z,97727.09
2023-02-24T15:13:12.870Z,97737.34
2023-02-24T15:14:27.787Z,97734.19